RELEVES METEO NEUVILLE
Donnes mto: Actuelle lundi, 19/08/2019 16:35
Date Horaire Temp. E. Hum. E. P.atmo. Pluie Vent Direction Direction P. de rose Temp au vent Rafales
19/08/2019 16:35 22,6 C 56 % 1017,0 hPa 0,0 mm 2,0 km/h (1 Bft) O-NO 290 13,4 C 22,6 C 12,9 km/h (3 Bft)
19/08/2019 16:30 22,3 C 57 % 1017,0 hPa 0,0 mm 1,1 km/h (1 Bft) O-SO 253 13,4 C 22,3 C 9,7 km/h (2 Bft)
19/08/2019 16:25 22,2 C 58 % 1016,9 hPa 0,0 mm 0,7 km/h (0 Bft) N-NO 327 13,5 C 22,2 C 11,3 km/h (2 Bft)
19/08/2019 16:20 22,0 C 58 % 1017,1 hPa 0,0 mm 1,3 km/h (1 Bft) NE 40 13,3 C 22,0 C 12,9 km/h (3 Bft)
19/08/2019 16:15 22,4 C 57 % 1017,0 hPa 0,0 mm 2,0 km/h (1 Bft) O 268 13,5 C 22,4 C 12,9 km/h (3 Bft)
19/08/2019 16:10 22,4 C 59 % 1017,1 hPa 0,0 mm 1,1 km/h (1 Bft) S 182 14,0 C 22,4 C 8,0 km/h (2 Bft)
19/08/2019 16:05 22,2 C 60 % 1016,9 hPa 0,0 mm 0,9 km/h (0 Bft) N-NO 348 14,1 C 22,2 C 14,5 km/h (3 Bft)
19/08/2019 16:00 22,1 C 58 % 1016,9 hPa 0,0 mm 0,9 km/h (0 Bft) S-SO 194 13,4 C 22,1 C 9,7 km/h (2 Bft)
19/08/2019 15:55 21,8 C 60 % 1017,0 hPa 0,0 mm 2,6 km/h (1 Bft) O 273 13,7 C 21,8 C 12,9 km/h (3 Bft)
19/08/2019 15:50 21,8 C 59 % 1016,9 hPa 0,0 mm 4,0 km/h (1 Bft) E-NE 70 13,4 C 21,8 C 14,5 km/h (3 Bft)
19/08/2019 15:45 21,8 C 59 % 1016,9 hPa 0,0 mm 1,4 km/h (1 Bft) NE 50 13,4 C 21,8 C 14,5 km/h (3 Bft)
19/08/2019 15:40 22,1 C 54 % 1016,9 hPa 0,0 mm 2,0 km/h (1 Bft) NO 304 12,3 C 22,1 C 9,7 km/h (2 Bft)
19/08/2019 15:35 22,4 C 51 % 1016,8 hPa 0,0 mm 1,9 km/h (1 Bft) O-SO 244 11,8 C 22,4 C 11,3 km/h (2 Bft)
19/08/2019 15:30 22,6 C 51 % 1016,8 hPa 0,0 mm 2,7 km/h (1 Bft) S 175 11,9 C 22,6 C 17,7 km/h (3 Bft)
19/08/2019 15:25 22,2 C 54 % 1016,7 hPa 0,0 mm 2,0 km/h (1 Bft) O-SO 258 12,4 C 22,2 C 16,1 km/h (3 Bft)
19/08/2019 15:20 21,8 C 58 % 1016,7 hPa 0,0 mm 0,4 km/h (0 Bft) N-NO 332 13,2 C 21,8 C 9,7 km/h (2 Bft)
19/08/2019 15:15 22,0 C 54 % 1016,7 hPa 0,0 mm 2,1 km/h (1 Bft) S-SE 154 12,3 C 22,0 C 12,9 km/h (3 Bft)
19/08/2019 15:10 22,4 C 52 % 1016,8 hPa 0,0 mm 1,2 km/h (1 Bft) S 184 12,1 C 22,4 C 9,7 km/h (2 Bft)
19/08/2019 15:05 22,8 C 51 % 1016,8 hPa 0,0 mm 1,9 km/h (1 Bft) SE 135 12,1 C 22,8 C 12,9 km/h (3 Bft)
19/08/2019 15:00 23,0 C 51 % 1016,7 hPa 0,0 mm 2,7 km/h (1 Bft) S 175 12,3 C 23,0 C 9,7 km/h (2 Bft)
19/08/2019 14:55 22,8 C 53 % 1016,7 hPa 0,0 mm 1,4 km/h (1 Bft) S-SO 213 12,7 C 22,8 C 17,7 km/h (3 Bft)
_ Min-Heure 07:10 15:00 00:00 - 00:00 - - 05:30 07:10 00:00
Minimum _ 11,7 C 51 % 1011,7 hPa - 0,0 km/h (0 Bft) - - 10,4 C 11,7 C 0,0 km/h (0 Bft)
_ Max-Heure 15:00 06:15 16:10 00:00 15:50 - - 12:00 15:00 14:20
Maximum _ 23,0 C 92 % 1017,1 hPa 0,0 mm 4,0 km/h
E-NE (1 Bft)
- - 14,1 C 23,0 C 24,1 km/h
S-SO (4 Bft)
Moyenne _ 16,0 C 79 % 1014,8 hPa #0,0 mm 0,9 km/h (0 Bft) S-SO - 12,0 C 16,0 C 6,7 km/h (2 Bft)
NEUVILLE ST REMY